LEMHLESO

Guest
Details From LEMH - Menorca
To LESO - San_Sebastian
Flight Number -
Tags decoded
Created
Modified
Stats Distance 342 nm / 633 km
Max Altitude 0 ft / 0 m
Waypoints 2
Social Downloads 0
Likes 0
Share VATSIM

Download

Looking for another format? Having issues loading an existing format? Contact us
Advertisement - Login to hide

Notes

Requested: LEMH LESO

Route

LEMH LESO

ID Type Via Altitude Latitude Longitude Leg Dist Tot Dist Heading (true) Name
O LEMH APT - 0 ft / 0 m 39.86222˚ 4.21976˚ - 0 nm - Menorca
O LESO APT - 0 ft / 0 m 43.35652˚ -1.79061˚ 341 nm 341 nm 310° / 306° San_Sebastian

Altitude Profile

Advertisement - Login to hide

Weather


0- 5 10 15 20 25 30 35+ Temperature / ° C

Clouds and Precipitation
Forecast for 2017-12-13 00:00 UTC. Updated an hour ago

Ground ~20,000 ft ~40,000 ft Winds

LEMH

Details ICAO LEMH (MAH)
Name Menorca
Region Spain
Timezone Europe/Madrid (UTC+1.0)
Stats Elevation 298 ft / 91 m (AMSL)
Location 39.862221° 4.219762°
Runways 2
Magnetic Variation 1.325° E

METAR

LEMH 130000Z 01009KT 9999 FEW025 08/05 Q1022

Decode

TAF

TAF LEMH 122000Z 1221/1321 36010KT 9999 SCT030 TX15/1309Z TN07/1306Z PROB40 TEMPO 1221/1303 4000 SHRA BKN025 SCT030TCU BECMG 1300/1302 VRB03KT BECMG 1310/1312 24010KT TEMPO 1318/1321 24015G25KT

Decode

Departure Runways

ID Width Length Bearing (true) Bearing (mag) Surface Threshold Offset Overrun Length
01L 148 ft / 45 m 7,723 ft / 2,354 m 8.97° 7.65° Asphalt 0 ft / 0 m 164 ft / 50 m
01R 148 ft / 45 m 6,903 ft / 2,104 m 8.97° 7.65° Asphalt 0 ft / 0 m 0 ft / 0 m
19L 148 ft / 45 m 6,903 ft / 2,104 m 188.97° 187.65° Asphalt 0 ft / 0 m 0 ft / 0 m
19R 148 ft / 45 m 7,723 ft / 2,354 m 188.97° 187.65° Asphalt 0 ft / 0 m 164 ft / 50 m

LESO

Details ICAO LESO (EAS)
Name San_Sebastian
Region Spain
Timezone Europe/Madrid (UTC+1.0)
Stats Elevation 14 ft / 4 m (AMSL)
Location 43.356520° -1.790611°
Runways 1
Magnetic Variation 0.298° W

METAR

LESO 130000Z AUTO 19004KT 9999 SCT065 08/04 Q1022

Decode

TAF

TAF LESO 122300Z 1300/1324 20009KT 9999 SCT050 TX15/1314Z TN06/1304Z PROB40 TEMPO 1303/1321 22015G25KT PROB30 TEMPO 1306/1321 RA TEMPO 1321/1324 3000 RA BKN014

Decode

Destination Runways

ID Width Length Bearing (true) Bearing (mag) Surface Threshold Offset Overrun Length
04 148 ft / 45 m 5,762 ft / 1,756 m 38.68° 38.98° Asphalt 0 ft / 0 m 0 ft / 0 m
22 148 ft / 45 m 5,762 ft / 1,756 m 218.69° 218.99° Asphalt 0 ft / 0 m 0 ft / 0 m